Morrisville, VT (05657)

7:55 PM EDT on September 02, 2015 (GMT -0400)
Villiage-Town Line | | Change Station
CLOSE
Current Station
Personal Weather Station
Location: Morristown, VT
Elevation: 869 ft
Nearby Weather Stations

Elev 869 ft 44.55 °N, 72.58 °W | Updated 0 second ago

Clear
Clear
70.7 °F
Feels Like 71 °F
N
0.0
Wind Variable Wind from South
Gusts 0.0 mph

Today
High -- | Low -- °F
--% Chance of Precip.
Yesterday
High -- | Low -- °F
Precip. -- in
6:13 AM 7:25 PM
Waning Gibbous, 76% visible
Pressure 29.91 in
Visibility 7.0 miles
Clouds Clear
Heat Index 71 °F
Dew Point 65 °F
Humidity 82%
Rainfall 0.00 in
Snow Depth Not available.
UV 0 out of 12
Pollen 8.30 out of 12
Air Quality Not available.
Flu Activity Not available.
METAR KMVL 022254Z AUTO 00000KT 7SM CLR 25/20 A2992 RMK AO2 SLP129 T02500200 TSNO
Pressure 29.91 in
Visibility 7.0 miles
Clouds Clear
Heat Index 71 °F
Dew Point 65 °F
Humidity 82%
Rainfall 0.00 in
Snow Depth Not available.
UV 0 out of 12
Pollen 8.30 out of 12
Air Quality Not available.
Flu Activity Not available.
METAR KMVL 022254Z AUTO 00000KT 7SM CLR 25/20 A2992 RMK AO2 SLP129 T02500200 TSNO

10-Day Weather Forecast

×

Almanac

Astronomy

Sep. 02, 2015 Rise Set
Actual Time
Civil Twilight
Nautical Twilight
Astronomical Twilight
Moon
Length of Visible Light
Length of Day
Tomorrow will be .
, % of the Moon is Illuminated

Today's Extremes

State Highs State Lows

Community

WunderPhotos

Upload Photos

1,851,841 photos uploaded!

WunderBlogs® & News

Nearby

Air Quality

  Air Quality AQ Index Pollutant
Not available.

Snow Depth

Station Depth Elevation

Earthquake Activity

City Distance Mag. Time & Date
Minimum magnitude displayed is 2.5.

Coastal Water Temperatures

Place Temperature

Stations

Nearby Weather Stations

Station Location Temp. Windchill Dew Point Humidity Wind Precip. Elev Updated Type